Admire, KS

11:13 PM CDT on July 27, 2014 (GMT -0500)
Adam's Place (KKSOSAGE3) Elev 1086 ft | 38.64 °N, 95.81 °W | Change Station

Current weather conditions updated 4 seconds ago

Clear
Clear
69.6 °F
Feels Like 69.6 °F
N
0.0
Wind Variable Wind from North
Gusts 4.0 mph

Tomorrow is forecast to be Much Cooler than today.

Today
High -- | Low -- °F
--% Chance of Precip.
Yesterday
High -- | Low -- °F
Precip. -- in
6:21 AM 8:39 PM
New Moon, 1% visible
Pressure 30.12 in
Visibility 10.0 miles
Clouds Clear
Dew Point 41 °F
Humidity 36%
Rainfall 0.00 in
Snow Depth Not available.
UV 0 out of 12
Pollen 7.10 out of 12
Air Quality Not available.
Flu Activity Not available.
METAR KEMP 280353Z AUTO 36005KT 10SM CLR 22/13 A3015 RMK AO2 SLP200 T02220128

More Conditions Fewer Conditions

Pressure 30.12 in
Visibility 10.0 miles
Clouds Clear
Dew Point 41 °F
Humidity 36%
Rainfall 0.00 in
Snow Depth Not available.
UV 0 out of 12
Pollen 7.10 out of 12
Air Quality Not available.
Flu Activity Not available.
METAR KEMP 280353Z AUTO 36005KT 10SM CLR 22/13 A3015 RMK AO2 SLP200 T02220128

More Conditions Fewer Conditions

10-Day Weather Forecast

Almanac

Astronomy

Jul. 27, 2014 Rise Set
Actual Time 6:21 AM CDT 8:39 PM CDT
Civil Twilight 5:51 AM CDT 9:09 PM CDT
Nautical Twilight 5:14 AM CDT 9:46 PM CDT
Astronomical Twilight 4:34 AM CDT 10:26 PM CDT
Moon 7:08 AM CDT (7/27) 8:51 PM CDT (7/27)
Length of Visible Light 15h 17m
Length of Day
14h 17m
Tomorrow will be 1m 45s shorter.
New Moon, 1% of the Moon is Illuminated
Jul 28
New Moon
Aug 3
First Quarter
Aug 10
Full
Aug 17
Last Quarter
Aug 25
New

Today's Extremes

State Highs State Lows

Community

WunderPhotos

Upload Photos

1,738,299 photos uploaded!

Nearby

Snow Depth

Station Depth Elevation
No new snow has been reported.

Earthquake Activity

City Distance Mag. Time & Date
No recent earthquake activity has been reported nearby.
Minimum magnitude displayed is 2.5.

Coastal Water Temperatures

Place Temperature
No Stations Reporting

Nearby Weather Stations

Station Location Temp. Heat Index Dew Point Humidity Wind Precip. Elev Updated Type
Adam's Place, OSAGE CITY, KS 69.6 °F - 41 °F 36% North  at  0.0 mph 0.00 in / hr 1086 ft 11:13 PM CDT Rapid Fire
Timmerman School Area, Emporia, KS 74.5 °F 77 °F 59 °F 58% NNE  at  6.7 mph 0.00 in / hr 1214 ft 11:11 PM CDT Rapid Fire
Skydive Kansas, Osage City, KS 76.8 °F 78 °F 53 °F 44% NW  at  0.0 mph 0.00 in / hr 1089 ft 12:13 AM EDT Rapid Fire
East Emporia Kansas, Emporia, KS 70.9 °F 76 °F 56 °F 60% SSE  at  0.0 mph - / hr 1106 ft 11:09 PM CDT Normal
Fly over Country, Burlingame, KS 66.4 °F - 59 °F 77% NNW  at  3.5 mph 0.00 in / hr 1063 ft 11:13 PM CDT Rapid Fire
T-K Weather Station West Hartford, Kansa, Hartford, KS 70.2 °F 75 °F 58 °F 65% NW  at  0.0 mph - / hr 1129 ft 11:02 PM CDT Normal

Show More Stations Show Fewer Stations